sensor_id;sensor_type;location;lat;lon;timestamp;P1;durP1;ratioP1;P2;durP2;ratioP2
20482;SDS011;10400;53.198;6.592;2022-09-09T00:03:57;13.02;;;8.50;;
20482;SDS011;10400;53.198;6.592;2022-09-09T00:06:43;12.73;;;8.32;;
20482;SDS011;10400;53.198;6.592;2022-09-09T00:09:16;14.90;;;9.00;;
20482;SDS011;10400;53.198;6.592;2022-09-09T00:17:12;15.57;;;9.43;;
20482;SDS011;10400;53.198;6.592;2022-09-09T00:22:36;12.95;;;9.45;;
20482;SDS011;10400;53.198;6.592;2022-09-09T00:25:11;12.70;;;9.90;;
20482;SDS011;10400;53.198;6.592;2022-09-09T00:27:45;13.52;;;9.77;;
20482;SDS011;10400;53.198;6.592;2022-09-09T00:32:41;15.30;;;10.15;;
20482;SDS011;10400;53.198;6.592;2022-09-09T00:35:27;15.65;;;10.18;;
20482;SDS011;10400;53.198;6.592;2022-09-09T00:38:10;12.93;;;10.15;;
20482;SDS011;10400;53.198;6.592;2022-09-09T00:43:28;17.38;;;10.48;;
20482;SDS011;10400;53.198;6.592;2022-09-09T00:48:52;15.43;;;9.52;;
20482;SDS011;10400;53.198;6.592;2022-09-09T00:51:44;13.82;;;9.25;;
20482;SDS011;10400;53.198;6.592;2022-09-09T01:03:18;12.65;;;9.63;;
20482;SDS011;10400;53.198;6.592;2022-09-09T01:08:15;11.98;;;8.98;;
20482;SDS011;10400;53.198;6.592;2022-09-09T01:10:53;14.65;;;9.15;;
20482;SDS011;10400;53.198;6.592;2022-09-09T01:13:26;13.10;;;8.68;;
20482;SDS011;10400;53.198;6.592;2022-09-09T01:15:58;12.88;;;8.82;;
20482;SDS011;10400;53.198;6.592;2022-09-09T01:18:37;11.80;;;9.10;;
20482;SDS011;10400;53.198;6.592;2022-09-09T01:21:20;12.60;;;9.38;;
20482;SDS011;10400;53.198;6.592;2022-09-09T01:26:39;11.23;;;8.77;;
20482;SDS011;10400;53.198;6.592;2022-09-09T01:29:11;13.82;;;8.75;;
20482;SDS011;10400;53.198;6.592;2022-09-09T01:31:40;14.35;;;9.07;;
20482;SDS011;10400;53.198;6.592;2022-09-09T01:34:10;13.20;;;8.68;;
20482;SDS011;10400;53.198;6.592;2022-09-09T01:39:23;14.18;;;8.52;;
20482;SDS011;10400;53.198;6.592;2022-09-09T01:41:49;10.88;;;8.18;;
20482;SDS011;10400;53.198;6.592;2022-09-09T01:44:14;14.35;;;8.32;;
20482;SDS011;10400;53.198;6.592;2022-09-09T01:46:43;11.48;;;8.70;;
20482;SDS011;10400;53.198;6.592;2022-09-09T01:49:08;12.27;;;9.10;;
20482;SDS011;10400;53.198;6.592;2022-09-09T01:51:35;15.70;;;8.75;;
20482;SDS011;10400;53.198;6.592;2022-09-09T01:54:04;10.88;;;8.30;;
20482;SDS011;10400;53.198;6.592;2022-09-09T01:56:47;15.80;;;8.95;;
20482;SDS011;10400;53.198;6.592;2022-09-09T02:04:43;12.52;;;9.20;;
20482;SDS011;10400;53.198;6.592;2022-09-09T02:09:44;12.88;;;8.98;;
20482;SDS011;10400;53.198;6.592;2022-09-09T02:12:17;12.90;;;9.27;;
20482;SDS011;10400;53.198;6.592;2022-09-09T02:14:47;21.38;;;9.73;;
20482;SDS011;10400;53.198;6.592;2022-09-09T02:17:22;13.02;;;9.75;;
20482;SDS011;10400;53.198;6.592;2022-09-09T02:20:04;15.52;;;10.30;;
20482;SDS011;10400;53.198;6.592;2022-09-09T02:22:33;14.55;;;9.80;;
20482;SDS011;10400;53.198;6.592;2022-09-09T02:25:05;15.70;;;10.20;;
20482;SDS011;10400;53.198;6.592;2022-09-09T02:27:33;13.75;;;10.30;;
20482;SDS011;10400;53.198;6.592;2022-09-09T02:30:00;17.30;;;10.43;;
20482;SDS011;10400;53.198;6.592;2022-09-09T02:32:27;13.85;;;9.75;;
20482;SDS011;10400;53.198;6.592;2022-09-09T02:34:57;19.05;;;10.38;;
20482;SDS011;10400;53.198;6.592;2022-09-09T02:37:29;15.25;;;10.38;;
20482;SDS011;10400;53.198;6.592;2022-09-09T02:40:00;14.85;;;10.68;;
20482;SDS011;10400;53.198;6.592;2022-09-09T02:42:27;12.75;;;9.82;;
20482;SDS011;10400;53.198;6.592;2022-09-09T02:44:53;17.42;;;9.88;;
20482;SDS011;10400;53.198;6.592;2022-09-09T02:50:02;17.23;;;9.52;;
20482;SDS011;10400;53.198;6.592;2022-09-09T02:54:59;16.58;;;9.75;;
20482;SDS011;10400;53.198;6.592;2022-09-09T02:57:36;20.10;;;9.93;;
20482;SDS011;10400;53.198;6.592;2022-09-09T03:00:02;14.68;;;10.40;;
20482;SDS011;10400;53.198;6.592;2022-09-09T03:02:29;15.88;;;9.40;;
20482;SDS011;10400;53.198;6.592;2022-09-09T03:04:55;15.00;;;9.38;;
20482;SDS011;10400;53.198;6.592;2022-09-09T03:07:21;14.95;;;9.70;;
20482;SDS011;10400;53.198;6.592;2022-09-09T03:09:46;13.23;;;8.77;;
20482;SDS011;10400;53.198;6.592;2022-09-09T03:12:12;12.68;;;9.15;;
20482;SDS011;10400;53.198;6.592;2022-09-09T03:14:38;19.67;;;9.82;;
20482;SDS011;10400;53.198;6.592;2022-09-09T03:17:07;14.30;;;9.45;;
20482;SDS011;10400;53.198;6.592;2022-09-09T03:19:34;16.35;;;9.20;;
20482;SDS011;10400;53.198;6.592;2022-09-09T03:22:00;14.13;;;8.80;;
20482;SDS011;10400;53.198;6.592;2022-09-09T03:24:26;13.90;;;8.07;;
20482;SDS011;10400;53.198;6.592;2022-09-09T03:26:51;12.30;;;7.53;;
20482;SDS011;10400;53.198;6.592;2022-09-09T03:29:17;12.52;;;8.20;;
20482;SDS011;10400;53.198;6.592;2022-09-09T03:31:43;12.30;;;7.72;;
20482;SDS011;10400;53.198;6.592;2022-09-09T03:34:09;10.45;;;7.60;;
20482;SDS011;10400;53.198;6.592;2022-09-09T03:36:35;10.18;;;6.90;;
20482;SDS011;10400;53.198;6.592;2022-09-09T03:39:02;10.10;;;7.45;;
20482;SDS011;10400;53.198;6.592;2022-09-09T03:41:28;13.02;;;6.78;;
20482;SDS011;10400;53.198;6.592;2022-09-09T03:43:54;9.88;;;6.30;;
20482;SDS011;10400;53.198;6.592;2022-09-09T03:46:20;11.52;;;6.53;;
20482;SDS011;10400;53.198;6.592;2022-09-09T03:48:47;8.48;;;5.97;;
20482;SDS011;10400;53.198;6.592;2022-09-09T03:51:13;9.40;;;5.80;;
20482;SDS011;10400;53.198;6.592;2022-09-09T03:53:40;10.20;;;6.20;;
20482;SDS011;10400;53.198;6.592;2022-09-09T03:56:06;6.97;;;5.25;;
20482;SDS011;10400;53.198;6.592;2022-09-09T03:58:33;8.85;;;5.60;;
20482;SDS011;10400;53.198;6.592;2022-09-09T04:01:00;9.60;;;5.35;;
20482;SDS011;10400;53.198;6.592;2022-09-09T04:03:28;6.72;;;4.55;;
20482;SDS011;10400;53.198;6.592;2022-09-09T04:05:54;7.55;;;4.97;;
20482;SDS011;10400;53.198;6.592;2022-09-09T04:08:21;7.22;;;4.50;;
20482;SDS011;10400;53.198;6.592;2022-09-09T04:10:50;6.53;;;4.38;;
20482;SDS011;10400;53.198;6.592;2022-09-09T04:13:16;13.50;;;4.35;;
20482;SDS011;10400;53.198;6.592;2022-09-09T04:15:53;10.68;;;3.83;;
20482;SDS011;10400;53.198;6.592;2022-09-09T04:18:20;9.15;;;3.50;;
20482;SDS011;10400;53.198;6.592;2022-09-09T04:20:46;7.95;;;3.10;;
20482;SDS011;10400;53.198;6.592;2022-09-09T04:23:13;7.40;;;3.03;;
20482;SDS011;10400;53.198;6.592;2022-09-09T04:25:43;6.90;;;2.92;;
20482;SDS011;10400;53.198;6.592;2022-09-09T04:28:10;8.10;;;2.50;;
20482;SDS011;10400;53.198;6.592;2022-09-09T04:30:35;10.07;;;3.55;;
20482;SDS011;10400;53.198;6.592;2022-09-09T04:33:01;5.53;;;3.00;;
20482;SDS011;10400;53.198;6.592;2022-09-09T04:35:26;9.55;;;3.45;;
20482;SDS011;10400;53.198;6.592;2022-09-09T04:37:52;6.63;;;3.08;;
20482;SDS011;10400;53.198;6.592;2022-09-09T04:40:18;7.78;;;3.30;;
20482;SDS011;10400;53.198;6.592;2022-09-09T04:42:43;5.93;;;3.22;;
20482;SDS011;10400;53.198;6.592;2022-09-09T04:45:09;6.05;;;3.20;;
20482;SDS011;10400;53.198;6.592;2022-09-09T04:47:36;6.47;;;3.30;;
20482;SDS011;10400;53.198;6.592;2022-09-09T04:50:02;7.07;;;3.47;;
20482;SDS011;10400;53.198;6.592;2022-09-09T04:52:28;7.72;;;3.90;;
20482;SDS011;10400;53.198;6.592;2022-09-09T04:54:53;6.60;;;3.70;;
20482;SDS011;10400;53.198;6.592;2022-09-09T04:57:19;8.85;;;4.05;;
20482;SDS011;10400;53.198;6.592;2022-09-09T04:59:45;7.63;;;3.70;;
20482;SDS011;10400;53.198;6.592;2022-09-09T05:02:10;7.50;;;4.38;;
20482;SDS011;10400;53.198;6.592;2022-09-09T05:04:36;9.20;;;4.60;;
20482;SDS011;10400;53.198;6.592;2022-09-09T05:07:02;8.93;;;4.88;;
20482;SDS011;10400;53.198;6.592;2022-09-09T05:09:28;5.95;;;5.10;;
20482;SDS011;10400;53.198;6.592;2022-09-09T05:11:54;11.98;;;5.90;;
20482;SDS011;10400;53.198;6.592;2022-09-09T05:14:20;8.25;;;5.88;;
20482;SDS011;10400;53.198;6.592;2022-09-09T05:16:47;10.52;;;5.80;;
20482;SDS011;10400;53.198;6.592;2022-09-09T05:19:14;11.77;;;6.15;;
20482;SDS011;10400;53.198;6.592;2022-09-09T05:21:40;6.97;;;5.53;;
20482;SDS011;10400;53.198;6.592;2022-09-09T05:24:06;7.82;;;5.97;;
20482;SDS011;10400;53.198;6.592;2022-09-09T05:26:32;11.27;;;6.22;;
20482;SDS011;10400;53.198;6.592;2022-09-09T05:28:58;11.63;;;7.10;;
20482;SDS011;10400;53.198;6.592;2022-09-09T05:31:25;8.85;;;6.60;;
20482;SDS011;10400;53.198;6.592;2022-09-09T05:33:52;10.60;;;6.60;;
20482;SDS011;10400;53.198;6.592;2022-09-09T05:36:19;11.10;;;7.35;;
20482;SDS011;10400;53.198;6.592;2022-09-09T05:38:46;12.18;;;7.05;;
20482;SDS011;10400;53.198;6.592;2022-09-09T05:41:12;9.55;;;7.22;;
20482;SDS011;10400;53.198;6.592;2022-09-09T05:43:40;9.35;;;7.03;;
20482;SDS011;10400;53.198;6.592;2022-09-09T05:46:11;12.02;;;7.65;;
20482;SDS011;10400;53.198;6.592;2022-09-09T05:48:45;11.23;;;7.80;;
20482;SDS011;10400;53.198;6.592;2022-09-09T05:51:13;13.48;;;8.98;;
20482;SDS011;10400;53.198;6.592;2022-09-09T05:53:43;12.93;;;7.50;;
20482;SDS011;10400;53.198;6.592;2022-09-09T05:56:14;11.05;;;7.72;;
20482;SDS011;10400;53.198;6.592;2022-09-09T05:58:42;12.90;;;8.55;;
20482;SDS011;10400;53.198;6.592;2022-09-09T06:01:13;14.05;;;8.75;;
20482;SDS011;10400;53.198;6.592;2022-09-09T06:03:41;12.80;;;8.60;;
20482;SDS011;10400;53.198;6.592;2022-09-09T06:06:09;16.02;;;9.35;;
20482;SDS011;10400;53.198;6.592;2022-09-09T06:08:37;13.73;;;9.40;;
20482;SDS011;10400;53.198;6.592;2022-09-09T06:11:05;12.88;;;7.93;;
20482;SDS011;10400;53.198;6.592;2022-09-09T06:13:32;11.52;;;8.70;;
20482;SDS011;10400;53.198;6.592;2022-09-09T06:15:58;15.23;;;8.68;;
20482;SDS011;10400;53.198;6.592;2022-09-09T06:18:24;12.20;;;8.70;;
20482;SDS011;10400;53.198;6.592;2022-09-09T06:20:57;11.65;;;8.60;;
20482;SDS011;10400;53.198;6.592;2022-09-09T06:23:25;11.02;;;8.20;;
20482;SDS011;10400;53.198;6.592;2022-09-09T06:25:52;13.32;;;8.60;;
20482;SDS011;10400;53.198;6.592;2022-09-09T06:28:35;14.05;;;8.65;;
20482;SDS011;10400;53.198;6.592;2022-09-09T06:31:03;13.18;;;8.10;;
20482;SDS011;10400;53.198;6.592;2022-09-09T06:33:31;12.10;;;8.20;;
20482;SDS011;10400;53.198;6.592;2022-09-09T06:35:59;13.40;;;8.30;;
20482;SDS011;10400;53.198;6.592;2022-09-09T06:38:25;11.35;;;8.25;;
20482;SDS011;10400;53.198;6.592;2022-09-09T06:40:55;10.10;;;7.75;;
20482;SDS011;10400;53.198;6.592;2022-09-09T06:43:23;12.75;;;7.45;;
20482;SDS011;10400;53.198;6.592;2022-09-09T06:45:53;13.70;;;7.78;;
20482;SDS011;10400;53.198;6.592;2022-09-09T06:48:19;10.60;;;7.47;;
20482;SDS011;10400;53.198;6.592;2022-09-09T06:50:45;10.00;;;7.13;;
20482;SDS011;10400;53.198;6.592;2022-09-09T06:53:11;8.88;;;7.38;;
20482;SDS011;10400;53.198;6.592;2022-09-09T06:55:36;10.68;;;7.35;;
20482;SDS011;10400;53.198;6.592;2022-09-09T06:58:02;11.45;;;7.60;;
20482;SDS011;10400;53.198;6.592;2022-09-09T07:00:33;10.68;;;7.00;;
20482;SDS011;10400;53.198;6.592;2022-09-09T07:02:59;10.65;;;6.88;;
20482;SDS011;10400;53.198;6.592;2022-09-09T07:05:24;9.95;;;6.97;;
20482;SDS011;10400;53.198;6.592;2022-09-09T07:07:51;11.85;;;6.80;;
20482;SDS011;10400;53.198;6.592;2022-09-09T07:10:17;8.20;;;6.30;;
20482;SDS011;10400;53.198;6.592;2022-09-09T07:12:43;11.13;;;6.53;;
20482;SDS011;10400;53.198;6.592;2022-09-09T07:15:09;9.45;;;6.43;;
20482;SDS011;10400;53.198;6.592;2022-09-09T07:17:34;10.05;;;7.10;;
20482;SDS011;10400;53.198;6.592;2022-09-09T07:20:00;9.00;;;6.43;;
20482;SDS011;10400;53.198;6.592;2022-09-09T07:22:27;10.40;;;6.70;;
20482;SDS011;10400;53.198;6.592;2022-09-09T07:24:53;10.82;;;7.38;;
20482;SDS011;10400;53.198;6.592;2022-09-09T07:27:19;9.18;;;6.10;;
20482;SDS011;10400;53.198;6.592;2022-09-09T07:29:44;9.52;;;6.50;;
20482;SDS011;10400;53.198;6.592;2022-09-09T07:32:10;9.77;;;6.57;;
20482;SDS011;10400;53.198;6.592;2022-09-09T07:34:36;9.63;;;6.25;;
20482;SDS011;10400;53.198;6.592;2022-09-09T07:37:02;11.32;;;6.60;;
20482;SDS011;10400;53.198;6.592;2022-09-09T07:39:28;10.38;;;7.05;;
20482;SDS011;10400;53.198;6.592;2022-09-09T07:41:53;7.57;;;6.35;;
20482;SDS011;10400;53.198;6.592;2022-09-09T07:44:23;8.93;;;5.38;;
20482;SDS011;10400;53.198;6.592;2022-09-09T07:46:52;10.32;;;5.97;;
20482;SDS011;10400;53.198;6.592;2022-09-09T07:49:18;9.77;;;6.05;;
20482;SDS011;10400;53.198;6.592;2022-09-09T07:51:45;6.82;;;5.13;;
20482;SDS011;10400;53.198;6.592;2022-09-09T07:54:13;6.60;;;5.63;;
20482;SDS011;10400;53.198;6.592;2022-09-09T07:56:40;8.32;;;5.80;;
20482;SDS011;10400;53.198;6.592;2022-09-09T07:59:06;8.38;;;5.60;;
20482;SDS011;10400;53.198;6.592;2022-09-09T08:01:37;8.77;;;5.32;;
20482;SDS011;10400;53.198;6.592;2022-09-09T08:04:14;8.15;;;5.38;;
20482;SDS011;10400;53.198;6.592;2022-09-09T08:06:46;5.97;;;5.05;;
20482;SDS011;10400;53.198;6.592;2022-09-09T08:09:14;6.45;;;4.97;;
20482;SDS011;10400;53.198;6.592;2022-09-09T08:11:40;12.95;;;5.72;;
20482;SDS011;10400;53.198;6.592;2022-09-09T08:14:06;8.40;;;5.43;;
20482;SDS011;10400;53.198;6.592;2022-09-09T08:16:34;8.55;;;4.80;;
20482;SDS011;10400;53.198;6.592;2022-09-09T08:19:02;8.68;;;5.25;;
20482;SDS011;10400;53.198;6.592;2022-09-09T08:21:29;6.43;;;4.50;;
20482;SDS011;10400;53.198;6.592;2022-09-09T08:23:57;6.88;;;4.68;;
20482;SDS011;10400;53.198;6.592;2022-09-09T08:26:25;5.68;;;4.35;;
20482;SDS011;10400;53.198;6.592;2022-09-09T08:29:11;6.60;;;4.82;;
20482;SDS011;10400;53.198;6.592;2022-09-09T08:31:39;5.72;;;4.22;;
20482;SDS011;10400;53.198;6.592;2022-09-09T08:34:07;7.65;;;4.85;;
20482;SDS011;10400;53.198;6.592;2022-09-09T08:36:35;5.93;;;3.60;;
20482;SDS011;10400;53.198;6.592;2022-09-09T08:39:08;6.78;;;4.20;;
20482;SDS011;10400;53.198;6.592;2022-09-09T08:58:49;6.53;;;4.15;;
20482;SDS011;10400;53.198;6.592;2022-09-09T09:09:04;6.25;;;3.67;;
20482;SDS011;10400;53.198;6.592;2022-09-09T09:11:48;7.53;;;3.75;;
20482;SDS011;10400;53.198;6.592;2022-09-09T09:14:23;7.35;;;3.90;;
20482;SDS011;10400;53.198;6.592;2022-09-09T09:19:34;12.30;;;4.07;;
20482;SDS011;10400;53.198;6.592;2022-09-09T09:28:01;5.80;;;3.55;;
20482;SDS011;10400;53.198;6.592;2022-09-09T09:30:34;6.47;;;3.50;;
20482;SDS011;10400;53.198;6.592;2022-09-09T09:35:39;5.68;;;3.28;;
20482;SDS011;10400;53.198;6.592;2022-09-09T09:38:26;7.03;;;3.75;;
20482;SDS011;10400;53.198;6.592;2022-09-09T09:40:53;6.43;;;4.13;;
20482;SDS011;10400;53.198;6.592;2022-09-09T09:43:35;7.85;;;2.90;;
20482;SDS011;10400;53.198;6.592;2022-09-09T09:46:04;9.30;;;3.05;;
20482;SDS011;10400;53.198;6.592;2022-09-09T09:48:43;10.60;;;3.00;;
20482;SDS011;10400;53.198;6.592;2022-09-09T09:51:10;9.70;;;3.03;;
20482;SDS011;10400;53.198;6.592;2022-09-09T09:53:40;10.35;;;2.47;;
20482;SDS011;10400;53.198;6.592;2022-09-09T09:56:08;7.90;;;2.40;;
20482;SDS011;10400;53.198;6.592;2022-09-09T10:01:22;10.15;;;3.03;;
20482;SDS011;10400;53.198;6.592;2022-09-09T10:03:54;9.07;;;2.50;;
20482;SDS011;10400;53.198;6.592;2022-09-09T10:06:29;6.60;;;2.78;;
20482;SDS011;10400;53.198;6.592;2022-09-09T10:08:59;12.10;;;2.90;;
20482;SDS011;10400;53.198;6.592;2022-09-09T10:14:20;7.07;;;2.20;;
20482;SDS011;10400;53.198;6.592;2022-09-09T10:16:59;8.05;;;2.28;;
20482;SDS011;10400;53.198;6.592;2022-09-09T10:20:47;10.32;;;2.55;;
20482;SDS011;10400;53.198;6.592;2022-09-09T10:22:52;6.85;;;2.22;;
20482;SDS011;10400;53.198;6.592;2022-09-09T10:25:56;9.52;;;2.30;;
20482;SDS011;10400;53.198;6.592;2022-09-09T10:36:52;10.55;;;1.98;;
20482;SDS011;10400;53.198;6.592;2022-09-09T10:55:38;8.02;;;2.10;;
20482;SDS011;10400;53.198;6.592;2022-09-09T10:58:14;7.18;;;2.08;;
20482;SDS011;10400;53.198;6.592;2022-09-09T11:00:46;7.40;;;1.77;;
20482;SDS011;10400;53.198;6.592;2022-09-09T11:03:20;11.48;;;2.00;;
20482;SDS011;10400;53.198;6.592;2022-09-09T11:06:06;7.57;;;1.90;;
20482;SDS011;10400;53.198;6.592;2022-09-09T11:08:38;6.10;;;2.00;;
20482;SDS011;10400;53.198;6.592;2022-09-09T11:11:48;5.07;;;1.40;;
20482;SDS011;10400;53.198;6.592;2022-09-09T11:19:39;5.57;;;1.50;;
20482;SDS011;10400;53.198;6.592;2022-09-09T11:22:17;8.48;;;1.45;;
20482;SDS011;10400;53.198;6.592;2022-09-09T11:25:01;6.50;;;1.50;;
20482;SDS011;10400;53.198;6.592;2022-09-09T11:27:37;3.95;;;1.27;;
20482;SDS011;10400;53.198;6.592;2022-09-09T11:40:55;7.63;;;1.63;;
20482;SDS011;10400;53.198;6.592;2022-09-09T11:45:57;5.55;;;1.30;;
20482;SDS011;10400;53.198;6.592;2022-09-09T11:48:29;9.35;;;1.70;;
20482;SDS011;10400;53.198;6.592;2022-09-09T11:53:34;5.07;;;1.67;;
20482;SDS011;10400;53.198;6.592;2022-09-09T11:56:12;5.53;;;1.20;;
20482;SDS011;10400;53.198;6.592;2022-09-09T11:59:04;7.28;;;1.67;;
20482;SDS011;10400;53.198;6.592;2022-09-09T12:01:44;6.60;;;1.42;;
20482;SDS011;10400;53.198;6.592;2022-09-09T12:06:56;7.25;;;1.40;;
20482;SDS011;10400;53.198;6.592;2022-09-09T12:19:39;7.30;;;1.80;;
20482;SDS011;10400;53.198;6.592;2022-09-09T12:22:07;7.03;;;1.42;;
20482;SDS011;10400;53.198;6.592;2022-09-09T12:30:31;4.53;;;1.42;;
20482;SDS011;10400;53.198;6.592;2022-09-09T12:33:16;10.02;;;1.27;;
20482;SDS011;10400;53.198;6.592;2022-09-09T12:35:44;4.38;;;1.00;;
20482;SDS011;10400;53.198;6.592;2022-09-09T12:38:15;4.80;;;1.20;;
20482;SDS011;10400;53.198;6.592;2022-09-09T12:40:54;5.00;;;1.40;;
20482;SDS011;10400;53.198;6.592;2022-09-09T12:43:21;9.25;;;1.40;;
20482;SDS011;10400;53.198;6.592;2022-09-09T12:45:49;7.88;;;1.45;;
20482;SDS011;10400;53.198;6.592;2022-09-09T12:48:24;10.32;;;1.45;;
20482;SDS011;10400;53.198;6.592;2022-09-09T12:50:58;6.60;;;1.50;;
20482;SDS011;10400;53.198;6.592;2022-09-09T12:53:26;6.35;;;1.25;;
20482;SDS011;10400;53.198;6.592;2022-09-09T12:56:01;7.07;;;1.67;;
20482;SDS011;10400;53.198;6.592;2022-09-09T12:58:29;6.38;;;1.45;;
20482;SDS011;10400;53.198;6.592;2022-09-09T13:01:00;3.55;;;1.10;;
20482;SDS011;10400;53.198;6.592;2022-09-09T13:03:30;3.17;;;1.05;;
20482;SDS011;10400;53.198;6.592;2022-09-09T13:05:58;4.65;;;1.60;;
20482;SDS011;10400;53.198;6.592;2022-09-09T13:08:34;7.05;;;1.73;;
20482;SDS011;10400;53.198;6.592;2022-09-09T13:11:01;5.15;;;1.35;;
20482;SDS011;10400;53.198;6.592;2022-09-09T13:13:35;5.55;;;1.42;;
20482;SDS011;10400;53.198;6.592;2022-09-09T13:16:03;6.80;;;1.40;;
20482;SDS011;10400;53.198;6.592;2022-09-09T13:18:33;6.75;;;1.30;;
20482;SDS011;10400;53.198;6.592;2022-09-09T13:21:01;5.10;;;1.23;;
20482;SDS011;10400;53.198;6.592;2022-09-09T13:23:28;4.75;;;1.50;;
20482;SDS011;10400;53.198;6.592;2022-09-09T13:25:56;7.68;;;1.50;;
20482;SDS011;10400;53.198;6.592;2022-09-09T13:28:25;7.28;;;1.55;;
20482;SDS011;10400;53.198;6.592;2022-09-09T13:30:56;6.28;;;1.33;;
20482;SDS011;10400;53.198;6.592;2022-09-09T13:33:29;8.63;;;1.50;;
20482;SDS011;10400;53.198;6.592;2022-09-09T13:38:25;5.32;;;1.38;;
20482;SDS011;10400;53.198;6.592;2022-09-09T13:40:55;12.48;;;1.30;;
20482;SDS011;10400;53.198;6.592;2022-09-09T13:43:26;7.45;;;1.23;;
20482;SDS011;10400;53.198;6.592;2022-09-09T13:48:21;6.55;;;1.45;;
20482;SDS011;10400;53.198;6.592;2022-09-09T13:51:01;4.20;;;1.02;;
20482;SDS011;10400;53.198;6.592;2022-09-09T13:53:30;4.55;;;1.40;;
20482;SDS011;10400;53.198;6.592;2022-09-09T13:55:56;4.68;;;1.40;;
20482;SDS011;10400;53.198;6.592;2022-09-09T13:58:23;5.75;;;1.40;;
20482;SDS011;10400;53.198;6.592;2022-09-09T14:00:50;7.85;;;1.40;;
20482;SDS011;10400;53.198;6.592;2022-09-09T14:03:17;5.53;;;1.10;;
20482;SDS011;10400;53.198;6.592;2022-09-09T14:05:44;3.53;;;0.90;;
20482;SDS011;10400;53.198;6.592;2022-09-09T14:08:13;4.05;;;0.90;;
20482;SDS011;10400;53.198;6.592;2022-09-09T14:10:46;4.43;;;0.73;;
20482;SDS011;10400;53.198;6.592;2022-09-09T14:13:12;1.95;;;0.50;;
20482;SDS011;10400;53.198;6.592;2022-09-09T14:15:38;5.60;;;0.98;;
20482;SDS011;10400;53.198;6.592;2022-09-09T14:18:04;2.70;;;0.50;;
20482;SDS011;10400;53.198;6.592;2022-09-09T14:20:29;3.47;;;0.80;;
20482;SDS011;10400;53.198;6.592;2022-09-09T14:22:55;1.85;;;0.70;;
20482;SDS011;10400;53.198;6.592;2022-09-09T14:25:22;1.75;;;0.40;;
20482;SDS011;10400;53.198;6.592;2022-09-09T14:27:48;2.63;;;0.55;;
20482;SDS011;10400;53.198;6.592;2022-09-09T14:30:16;4.95;;;0.98;;
20482;SDS011;10400;53.198;6.592;2022-09-09T14:32:42;2.72;;;0.60;;
20482;SDS011;10400;53.198;6.592;2022-09-09T14:35:07;2.08;;;0.70;;
20482;SDS011;10400;53.198;6.592;2022-09-09T14:37:33;3.92;;;0.80;;
20482;SDS011;10400;53.198;6.592;2022-09-09T14:39:59;3.50;;;0.85;;
20482;SDS011;10400;53.198;6.592;2022-09-09T14:42:25;3.70;;;1.02;;
20482;SDS011;10400;53.198;6.592;2022-09-09T14:44:51;2.45;;;0.65;;
20482;SDS011;10400;53.198;6.592;2022-09-09T14:47:17;2.78;;;0.55;;
20482;SDS011;10400;53.198;6.592;2022-09-09T14:49:43;2.92;;;0.70;;
20482;SDS011;10400;53.198;6.592;2022-09-09T14:52:10;1.88;;;0.50;;
20482;SDS011;10400;53.198;6.592;2022-09-09T14:54:36;3.72;;;0.60;;
20482;SDS011;10400;53.198;6.592;2022-09-09T14:57:02;2.00;;;0.70;;
20482;SDS011;10400;53.198;6.592;2022-09-09T14:59:28;2.88;;;0.60;;
20482;SDS011;10400;53.198;6.592;2022-09-09T15:01:53;2.88;;;0.90;;
20482;SDS011;10400;53.198;6.592;2022-09-09T15:04:19;3.55;;;0.90;;
20482;SDS011;10400;53.198;6.592;2022-09-09T15:06:45;2.28;;;0.80;;
20482;SDS011;10400;53.198;6.592;2022-09-09T15:09:13;4.28;;;1.08;;
20482;SDS011;10400;53.198;6.592;2022-09-09T15:11:39;4.47;;;1.08;;
20482;SDS011;10400;53.198;6.592;2022-09-09T15:14:05;6.30;;;1.42;;
20482;SDS011;10400;53.198;6.592;2022-09-09T15:16:33;4.15;;;0.95;;
20482;SDS011;10400;53.198;6.592;2022-09-09T15:19:00;5.20;;;1.08;;
20482;SDS011;10400;53.198;6.592;2022-09-09T15:21:27;2.03;;;1.15;;
20482;SDS011;10400;53.198;6.592;2022-09-09T15:23:55;5.00;;;1.17;;
20482;SDS011;10400;53.198;6.592;2022-09-09T15:26:21;3.42;;;1.00;;
20482;SDS011;10400;53.198;6.592;2022-09-09T15:28:47;4.47;;;1.00;;
20482;SDS011;10400;53.198;6.592;2022-09-09T15:31:18;4.30;;;1.10;;
20482;SDS011;10400;53.198;6.592;2022-09-09T15:33:55;3.72;;;1.08;;
20482;SDS011;10400;53.198;6.592;2022-09-09T15:36:29;5.45;;;1.00;;
20482;SDS011;10400;53.198;6.592;2022-09-09T15:38:57;3.40;;;1.42;;
20482;SDS011;10400;53.198;6.592;2022-09-09T15:41:24;4.03;;;1.30;;
20482;SDS011;10400;53.198;6.592;2022-09-09T15:43:51;4.05;;;1.25;;
20482;SDS011;10400;53.198;6.592;2022-09-09T15:49:09;2.45;;;1.00;;
20482;SDS011;10400;53.198;6.592;2022-09-09T15:51:56;4.50;;;0.82;;
20482;SDS011;10400;53.198;6.592;2022-09-09T15:54:27;3.58;;;0.95;;
20482;SDS011;10400;53.198;6.592;2022-09-09T15:56:57;2.05;;;0.68;;
20482;SDS011;10400;53.198;6.592;2022-09-09T15:59:25;3.60;;;0.85;;
20482;SDS011;10400;53.198;6.592;2022-09-09T16:01:55;2.17;;;0.73;;
20482;SDS011;10400;53.198;6.592;2022-09-09T16:04:22;5.65;;;0.82;;
20482;SDS011;10400;53.198;6.592;2022-09-09T16:06:50;2.40;;;0.70;;
20482;SDS011;10400;53.198;6.592;2022-09-09T16:09:16;4.95;;;0.85;;
20482;SDS011;10400;53.198;6.592;2022-09-09T16:11:42;2.13;;;0.70;;
20482;SDS011;10400;53.198;6.592;2022-09-09T16:14:08;1.33;;;0.60;;
20482;SDS011;10400;53.198;6.592;2022-09-09T16:16:34;3.65;;;1.02;;
20482;SDS011;10400;53.198;6.592;2022-09-09T16:19:02;2.92;;;0.85;;
20482;SDS011;10400;53.198;6.592;2022-09-09T16:21:35;3.95;;;1.08;;
20482;SDS011;10400;53.198;6.592;2022-09-09T16:24:03;4.78;;;1.00;;
20482;SDS011;10400;53.198;6.592;2022-09-09T16:26:30;2.88;;;1.02;;
20482;SDS011;10400;53.198;6.592;2022-09-09T16:28:58;5.68;;;1.13;;
20482;SDS011;10400;53.198;6.592;2022-09-09T16:31:25;2.45;;;1.00;;
20482;SDS011;10400;53.198;6.592;2022-09-09T16:33:52;5.13;;;1.33;;
20482;SDS011;10400;53.198;6.592;2022-09-09T16:36:19;3.88;;;1.15;;
20482;SDS011;10400;53.198;6.592;2022-09-09T16:38:46;7.03;;;1.67;;
20482;SDS011;10400;53.198;6.592;2022-09-09T16:41:13;2.60;;;0.90;;
20482;SDS011;10400;53.198;6.592;2022-09-09T16:43:39;5.97;;;1.00;;
20482;SDS011;10400;53.198;6.592;2022-09-09T16:46:13;4.15;;;1.40;;
20482;SDS011;10400;53.198;6.592;2022-09-09T16:48:42;4.40;;;1.05;;
20482;SDS011;10400;53.198;6.592;2022-09-09T16:51:12;3.80;;;1.00;;
20482;SDS011;10400;53.198;6.592;2022-09-09T16:53:41;7.43;;;1.50;;
20482;SDS011;10400;53.198;6.592;2022-09-09T16:56:08;3.58;;;1.13;;
20482;SDS011;10400;53.198;6.592;2022-09-09T16:58:35;3.85;;;1.20;;
20482;SDS011;10400;53.198;6.592;2022-09-09T17:01:01;2.35;;;1.10;;
20482;SDS011;10400;53.198;6.592;2022-09-09T17:03:28;2.20;;;1.20;;
20482;SDS011;10400;53.198;6.592;2022-09-09T17:05:56;2.80;;;1.02;;
20482;SDS011;10400;53.198;6.592;2022-09-09T17:08:22;2.60;;;1.10;;
20482;SDS011;10400;53.198;6.592;2022-09-09T17:10:49;3.35;;;0.98;;
20482;SDS011;10400;53.198;6.592;2022-09-09T17:13:15;2.92;;;1.15;;
20482;SDS011;10400;53.198;6.592;2022-09-09T17:15:42;3.75;;;1.42;;
20482;SDS011;10400;53.198;6.592;2022-09-09T17:18:11;6.28;;;1.70;;
20482;SDS011;10400;53.198;6.592;2022-09-09T17:20:38;1.55;;;0.90;;
20482;SDS011;10400;53.198;6.592;2022-09-09T17:23:08;3.42;;;1.20;;
20482;SDS011;10400;53.198;6.592;2022-09-09T17:25:35;5.57;;;1.40;;
20482;SDS011;10400;53.198;6.592;2022-09-09T17:28:01;4.22;;;1.45;;
20482;SDS011;10400;53.198;6.592;2022-09-09T17:30:29;3.70;;;1.80;;
20482;SDS011;10400;53.198;6.592;2022-09-09T17:32:58;3.70;;;1.33;;
20482;SDS011;10400;53.198;6.592;2022-09-09T17:35:24;3.45;;;1.30;;
20482;SDS011;10400;53.198;6.592;2022-09-09T17:37:52;2.40;;;1.50;;
20482;SDS011;10400;53.198;6.592;2022-09-09T17:40:19;3.28;;;1.10;;